sensor_id;sensor_type;location;lat;lon;timestamp;pressure;altitude;pressure_sealevel;temperature;humidity
54455;BME280;40364;52.270;10.546;2023-02-20T00:00:21;101307.44;;;11.08;77.08
54455;BME280;40364;52.270;10.546;2023-02-20T00:02:48;101302.84;;;11.03;77.36
54455;BME280;40364;52.270;10.546;2023-02-20T00:05:15;101305.50;;;11.00;77.67
54455;BME280;40364;52.270;10.546;2023-02-20T00:07:42;101307.25;;;11.30;76.91
54455;BME280;40364;52.270;10.546;2023-02-20T00:10:09;101289.75;;;11.76;75.45
54455;BME280;40364;52.270;10.546;2023-02-20T00:12:36;101299.50;;;11.36;76.37
54455;BME280;40364;52.270;10.546;2023-02-20T00:15:04;101288.97;;;11.59;74.62
54455;BME280;40364;52.270;10.546;2023-02-20T00:17:33;101292.13;;;11.48;75.94
54455;BME280;40364;52.270;10.546;2023-02-20T00:19:59;101293.44;;;11.42;75.67
54455;BME280;40364;52.270;10.546;2023-02-20T00:22:26;101291.63;;;11.46;75.68
54455;BME280;40364;52.270;10.546;2023-02-20T00:24:53;101287.69;;;11.39;77.33
54455;BME280;40364;52.270;10.546;2023-02-20T00:27:20;101286.13;;;11.85;75.20
54455;BME280;40364;52.270;10.546;2023-02-20T00:29:46;101288.41;;;11.19;79.32
54455;BME280;40364;52.270;10.546;2023-02-20T00:32:15;101280.03;;;11.74;76.07
54455;BME280;40364;52.270;10.546;2023-02-20T00:34:43;101282.50;;;11.29;79.36
54455;BME280;40364;52.270;10.546;2023-02-20T00:37:10;101272.34;;;11.16;79.67
54455;BME280;40364;52.270;10.546;2023-02-20T00:39:37;101272.75;;;11.43;80.02
54455;BME280;40364;52.270;10.546;2023-02-20T00:42:03;101277.94;;;9.98;92.98
54455;BME280;40364;52.270;10.546;2023-02-20T00:44:30;101276.63;;;10.53;90.31
54455;BME280;40364;52.270;10.546;2023-02-20T00:46:57;101276.06;;;11.92;78.49
54455;BME280;40364;52.270;10.546;2023-02-20T00:49:24;101270.59;;;12.25;74.56
54455;BME280;40364;52.270;10.546;2023-02-20T00:51:53;101258.16;;;11.38;80.53
54455;BME280;40364;52.270;10.546;2023-02-20T00:54:19;101260.88;;;10.91;84.54
54455;BME280;40364;52.270;10.546;2023-02-20T00:56:46;101256.56;;;11.20;83.27
54455;BME280;40364;52.270;10.546;2023-02-20T00:59:12;101263.16;;;11.06;84.07
54455;BME280;40364;52.270;10.546;2023-02-20T01:01:39;101253.13;;;11.23;81.98
54455;BME280;40364;52.270;10.546;2023-02-20T01:04:06;101259.44;;;11.96;77.37
54455;BME280;40364;52.270;10.546;2023-02-20T01:06:33;101252.00;;;11.62;80.75
54455;BME280;40364;52.270;10.546;2023-02-20T01:09:01;101242.06;;;11.52;80.69
54455;BME280;40364;52.270;10.546;2023-02-20T01:11:27;101247.38;;;11.74;79.30
54455;BME280;40364;52.270;10.546;2023-02-20T01:13:54;101246.41;;;11.70;77.97
54455;BME280;40364;52.270;10.546;2023-02-20T01:16:21;101233.53;;;11.48;80.73
54455;BME280;40364;52.270;10.546;2023-02-20T01:18:49;101246.06;;;11.72;81.06
54455;BME280;40364;52.270;10.546;2023-02-20T01:21:16;101243.56;;;12.17;77.27
54455;BME280;40364;52.270;10.546;2023-02-20T01:23:42;101236.91;;;12.01;78.64
54455;BME280;40364;52.270;10.546;2023-02-20T01:26:10;101227.00;;;11.83;78.27
54455;BME280;40364;52.270;10.546;2023-02-20T01:28:37;101235.22;;;11.79;78.55
54455;BME280;40364;52.270;10.546;2023-02-20T01:31:04;101230.66;;;11.66;79.91
54455;BME280;40364;52.270;10.546;2023-02-20T01:33:32;101230.19;;;12.02;77.81
54455;BME280;40364;52.270;10.546;2023-02-20T01:35:59;101217.00;;;11.82;78.84
54455;BME280;40364;52.270;10.546;2023-02-20T01:38:25;101210.63;;;11.26;82.54
54455;BME280;40364;52.270;10.546;2023-02-20T01:40:52;101196.41;;;11.01;86.21
54455;BME280;40364;52.270;10.546;2023-02-20T01:43:20;101199.56;;;11.46;83.08
54455;BME280;40364;52.270;10.546;2023-02-20T01:45:47;101196.31;;;11.83;79.43
54455;BME280;40364;52.270;10.546;2023-02-20T01:48:21;101202.88;;;11.31;84.38
54455;BME280;40364;52.270;10.546;2023-02-20T01:50:52;101195.66;;;11.77;82.17
54455;BME280;40364;52.270;10.546;2023-02-20T01:53:22;101183.03;;;11.71;81.68
54455;BME280;40364;52.270;10.546;2023-02-20T01:55:53;101177.91;;;11.82;80.67
54455;BME280;40364;52.270;10.546;2023-02-20T01:58:27;101159.28;;;10.63;88.36
54455;BME280;40364;52.270;10.546;2023-02-20T02:00:57;101159.81;;;11.11;83.47
54455;BME280;40364;52.270;10.546;2023-02-20T02:03:28;101161.88;;;10.76;87.49
54455;BME280;40364;52.270;10.546;2023-02-20T02:05:58;101142.03;;;10.87;87.50
54455;BME280;40364;52.270;10.546;2023-02-20T02:08:27;101144.28;;;11.40;83.64
54455;BME280;40364;52.270;10.546;2023-02-20T02:10:58;101142.84;;;10.87;87.32
54455;BME280;40364;52.270;10.546;2023-02-20T02:13:27;101144.78;;;11.71;81.93
54455;BME280;40364;52.270;10.546;2023-02-20T02:16:02;101145.25;;;11.44;80.64
54455;BME280;40364;52.270;10.546;2023-02-20T02:18:43;101140.78;;;11.13;84.72
54455;BME280;40364;52.270;10.546;2023-02-20T02:27:42;101124.38;;;10.65;86.30
54455;BME280;40364;52.270;10.546;2023-02-20T02:30:49;101118.53;;;11.93;75.76
54455;BME280;40364;52.270;10.546;2023-02-20T02:33:36;101106.66;;;11.17;78.77
54455;BME280;40364;52.270;10.546;2023-02-20T02:39:18;101104.19;;;11.24;78.53
54455;BME280;40364;52.270;10.546;2023-02-20T02:41:53;101109.56;;;11.29;76.57
54455;BME280;40364;52.270;10.546;2023-02-20T02:44:28;101093.53;;;11.17;78.31
54455;BME280;40364;52.270;10.546;2023-02-20T02:46:58;101088.91;;;11.30;77.07
54455;BME280;40364;52.270;10.546;2023-02-20T02:49:32;101081.75;;;11.70;74.18
54455;BME280;40364;52.270;10.546;2023-02-20T02:52:03;101072.69;;;11.23;75.17
54455;BME280;40364;52.270;10.546;2023-02-20T02:54:31;101083.34;;;11.51;73.85
54455;BME280;40364;52.270;10.546;2023-02-20T02:57:19;101063.06;;;11.62;73.92
54455;BME280;40364;52.270;10.546;2023-02-20T02:59:50;101083.09;;;11.05;77.96
54455;BME280;40364;52.270;10.546;2023-02-20T03:02:21;101072.88;;;11.18;75.75
54455;BME280;40364;52.270;10.546;2023-02-20T03:04:51;101078.31;;;11.65;73.17
54455;BME280;40364;52.270;10.546;2023-02-20T03:07:20;101066.31;;;11.43;73.95
54455;BME280;40364;52.270;10.546;2023-02-20T03:09:50;101065.69;;;11.08;78.08
54455;BME280;40364;52.270;10.546;2023-02-20T03:12:19;101074.72;;;11.05;77.29
54455;BME280;40364;52.270;10.546;2023-02-20T03:14:54;101071.56;;;11.95;71.05
54455;BME280;40364;52.270;10.546;2023-02-20T03:17:43;101061.69;;;11.27;75.81
54455;BME280;40364;52.270;10.546;2023-02-20T03:20:16;101067.59;;;11.25;76.59
54455;BME280;40364;52.270;10.546;2023-02-20T03:22:48;101085.84;;;11.14;76.85
54455;BME280;40364;52.270;10.546;2023-02-20T03:25:20;101086.88;;;11.01;79.01
54455;BME280;40364;52.270;10.546;2023-02-20T03:27:51;101086.72;;;11.35;76.52
54455;BME280;40364;52.270;10.546;2023-02-20T03:30:23;101070.19;;;11.60;75.10
54455;BME280;40364;52.270;10.546;2023-02-20T03:32:57;101077.56;;;10.97;78.36
54455;BME280;40364;52.270;10.546;2023-02-20T03:35:44;101066.25;;;10.93;78.47
54455;BME280;40364;52.270;10.546;2023-02-20T03:38:35;101085.69;;;11.10;77.41
54455;BME280;40364;52.270;10.546;2023-02-20T03:41:22;101076.97;;;11.21;77.85
54455;BME280;40364;52.270;10.546;2023-02-20T03:44:09;101058.00;;;11.05;77.53
54455;BME280;40364;52.270;10.546;2023-02-20T03:46:39;101058.25;;;11.21;76.97
54455;BME280;40364;52.270;10.546;2023-02-20T03:49:10;101059.34;;;11.88;72.34
54455;BME280;40364;52.270;10.546;2023-02-20T03:51:38;101052.22;;;10.72;79.41
54455;BME280;40364;52.270;10.546;2023-02-20T03:54:07;101052.75;;;11.04;76.88
54455;BME280;40364;52.270;10.546;2023-02-20T03:56:37;101058.22;;;11.00;76.92
54455;BME280;40364;52.270;10.546;2023-02-20T03:59:11;101045.47;;;11.20;77.26
54455;BME280;40364;52.270;10.546;2023-02-20T04:01:41;101043.31;;;11.97;73.05
54455;BME280;40364;52.270;10.546;2023-02-20T04:04:12;101037.50;;;11.60;72.79
54455;BME280;40364;52.270;10.546;2023-02-20T04:06:40;101039.06;;;11.20;75.13
54455;BME280;40364;52.270;10.546;2023-02-20T04:09:13;101020.78;;;11.60;73.55
54455;BME280;40364;52.270;10.546;2023-02-20T04:11:45;101015.78;;;11.45;75.08
54455;BME280;40364;52.270;10.546;2023-02-20T04:14:14;101006.28;;;11.17;77.72
54455;BME280;40364;52.270;10.546;2023-02-20T04:16:46;100995.00;;;11.13;76.00
54455;BME280;40364;52.270;10.546;2023-02-20T04:19:15;100992.72;;;11.06;77.61
54455;BME280;40364;52.270;10.546;2023-02-20T04:21:45;100991.06;;;11.35;76.40
54455;BME280;40364;52.270;10.546;2023-02-20T04:24:20;100994.22;;;11.54;74.99
54455;BME280;40364;52.270;10.546;2023-02-20T04:26:49;100985.63;;;11.38;75.52
54455;BME280;40364;52.270;10.546;2023-02-20T04:29:15;100998.41;;;10.89;77.93
54455;BME280;40364;52.270;10.546;2023-02-20T04:31:42;100980.91;;;10.80;79.59
54455;BME280;40364;52.270;10.546;2023-02-20T04:34:09;100985.44;;;11.23;77.46
54455;BME280;40364;52.270;10.546;2023-02-20T04:36:36;100991.53;;;11.16;78.21
54455;BME280;40364;52.270;10.546;2023-02-20T04:39:02;100994.75;;;11.27;77.48
54455;BME280;40364;52.270;10.546;2023-02-20T04:41:31;100990.50;;;11.92;73.20
54455;BME280;40364;52.270;10.546;2023-02-20T04:43:57;100969.19;;;11.87;71.67
54455;BME280;40364;52.270;10.546;2023-02-20T04:46:38;100965.66;;;11.07;75.95
54455;BME280;40364;52.270;10.546;2023-02-20T04:49:04;100969.03;;;11.21;77.48
54455;BME280;40364;52.270;10.546;2023-02-20T04:51:31;100961.53;;;11.75;73.39
54455;BME280;40364;52.270;10.546;2023-02-20T04:53:58;100950.06;;;11.56;75.26
54455;BME280;40364;52.270;10.546;2023-02-20T04:56:25;100961.16;;;11.44;75.68
54455;BME280;40364;52.270;10.546;2023-02-20T04:58:53;100937.94;;;11.10;78.19
54455;BME280;40364;52.270;10.546;2023-02-20T05:01:19;100931.72;;;11.67;74.54
54455;BME280;40364;52.270;10.546;2023-02-20T05:03:46;100932.97;;;10.95;78.84
54455;BME280;40364;52.270;10.546;2023-02-20T05:06:13;100933.50;;;11.09;77.88
54455;BME280;40364;52.270;10.546;2023-02-20T05:08:39;100936.00;;;11.02;78.14
54455;BME280;40364;52.270;10.546;2023-02-20T05:11:06;100928.34;;;10.99;80.07
54455;BME280;40364;52.270;10.546;2023-02-20T05:13:33;100916.38;;;11.20;78.55
54455;BME280;40364;52.270;10.546;2023-02-20T05:16:01;100926.09;;;11.13;79.80
54455;BME280;40364;52.270;10.546;2023-02-20T05:18:29;100924.13;;;10.64;83.57
54455;BME280;40364;52.270;10.546;2023-02-20T05:20:56;100936.97;;;10.77;81.74
54455;BME280;40364;52.270;10.546;2023-02-20T05:23:41;100937.38;;;10.96;81.13
54455;BME280;40364;52.270;10.546;2023-02-20T05:26:08;100952.09;;;11.26;79.45
54455;BME280;40364;52.270;10.546;2023-02-20T05:28:35;100928.13;;;10.75;82.57
54455;BME280;40364;52.270;10.546;2023-02-20T05:31:05;100939.03;;;11.39;79.79
54455;BME280;40364;52.270;10.546;2023-02-20T05:33:31;100932.44;;;11.23;79.37
54455;BME280;40364;52.270;10.546;2023-02-20T05:35:58;100918.41;;;11.31;79.78
54455;BME280;40364;52.270;10.546;2023-02-20T05:38:25;100918.41;;;10.90;82.19
54455;BME280;40364;52.270;10.546;2023-02-20T05:40:52;100913.94;;;11.39;79.63
54455;BME280;40364;52.270;10.546;2023-02-20T05:43:22;100909.56;;;11.08;81.00
54455;BME280;40364;52.270;10.546;2023-02-20T05:45:48;100897.75;;;11.11;80.25
54455;BME280;40364;52.270;10.546;2023-02-20T05:48:18;100886.25;;;10.92;81.91
54455;BME280;40364;52.270;10.546;2023-02-20T05:50:45;100871.88;;;11.02;82.13
54455;BME280;40364;52.270;10.546;2023-02-20T05:53:14;100868.06;;;10.65;83.51
54455;BME280;40364;52.270;10.546;2023-02-20T05:55:41;100860.53;;;11.07;81.64
54455;BME280;40364;52.270;10.546;2023-02-20T05:58:08;100849.34;;;10.95;80.32
54455;BME280;40364;52.270;10.546;2023-02-20T06:00:34;100862.63;;;11.52;77.46
54455;BME280;40364;52.270;10.546;2023-02-20T06:03:04;100864.75;;;11.34;78.82
54455;BME280;40364;52.270;10.546;2023-02-20T06:05:32;100855.00;;;11.73;77.15
54455;BME280;40364;52.270;10.546;2023-02-20T06:07:59;100866.47;;;11.93;74.34
54455;BME280;40364;52.270;10.546;2023-02-20T06:10:48;100852.16;;;11.49;77.67
54455;BME280;40364;52.270;10.546;2023-02-20T06:13:16;100853.72;;;11.92;75.00
54455;BME280;40364;52.270;10.546;2023-02-20T06:15:42;100853.94;;;11.12;79.88
54455;BME280;40364;52.270;10.546;2023-02-20T06:18:09;100855.72;;;10.96;81.07
54455;BME280;40364;52.270;10.546;2023-02-20T06:23:05;100843.25;;;11.35;80.15
54455;BME280;40364;52.270;10.546;2023-02-20T06:25:32;100840.78;;;11.00;82.21
54455;BME280;40364;52.270;10.546;2023-02-20T06:27:58;100839.88;;;11.08;81.52
54455;BME280;40364;52.270;10.546;2023-02-20T06:30:25;100838.94;;;11.58;78.05
54455;BME280;40364;52.270;10.546;2023-02-20T06:32:52;100847.63;;;10.82;82.97
54455;BME280;40364;52.270;10.546;2023-02-20T06:35:18;100844.91;;;10.94;83.36
54455;BME280;40364;52.270;10.546;2023-02-20T06:37:45;100851.84;;;11.30;81.65
54455;BME280;40364;52.270;10.546;2023-02-20T06:40:13;100833.69;;;11.24;82.22
54455;BME280;40364;52.270;10.546;2023-02-20T06:42:40;100839.63;;;11.34;80.36
54455;BME280;40364;52.270;10.546;2023-02-20T06:45:07;100831.28;;;11.67;77.11
54455;BME280;40364;52.270;10.546;2023-02-20T06:47:35;100839.50;;;11.52;78.63
54455;BME280;40364;52.270;10.546;2023-02-20T06:50:02;100845.63;;;11.45;79.49
54455;BME280;40364;52.270;10.546;2023-02-20T06:52:29;100841.41;;;11.39;79.71
54455;BME280;40364;52.270;10.546;2023-02-20T06:54:56;100839.31;;;12.14;75.39
54455;BME280;40364;52.270;10.546;2023-02-20T06:57:24;100838.03;;;12.11;74.77
54455;BME280;40364;52.270;10.546;2023-02-20T06:59:51;100849.25;;;11.78;75.33
54455;BME280;40364;52.270;10.546;2023-02-20T07:02:18;100840.22;;;12.06;75.61
54455;BME280;40364;52.270;10.546;2023-02-20T07:04:46;100843.78;;;11.49;77.82
54455;BME280;40364;52.270;10.546;2023-02-20T07:07:13;100846.97;;;11.60;77.32
54455;BME280;40364;52.270;10.546;2023-02-20T07:09:40;100825.00;;;11.37;78.91
54455;BME280;40364;52.270;10.546;2023-02-20T07:12:07;100835.69;;;11.35;81.39
54455;BME280;40364;52.270;10.546;2023-02-20T07:14:35;100835.47;;;12.06;76.29
54455;BME280;40364;52.270;10.546;2023-02-20T07:17:01;100835.16;;;11.42;78.56
54455;BME280;40364;52.270;10.546;2023-02-20T07:19:28;100830.50;;;11.46;80.66
54455;BME280;40364;52.270;10.546;2023-02-20T07:21:55;100824.41;;;12.34;74.14
54455;BME280;40364;52.270;10.546;2023-02-20T07:24:21;100827.22;;;12.34;71.41
54455;BME280;40364;52.270;10.546;2023-02-20T07:26:48;100829.44;;;12.53;72.21
54455;BME280;40364;52.270;10.546;2023-02-20T07:29:15;100820.00;;;12.21;72.36
54455;BME280;40364;52.270;10.546;2023-02-20T07:31:43;100830.94;;;12.14;73.53
54455;BME280;40364;52.270;10.546;2023-02-20T07:34:10;100832.06;;;11.89;73.78
54455;BME280;40364;52.270;10.546;2023-02-20T07:36:36;100840.09;;;12.02;73.29
54455;BME280;40364;52.270;10.546;2023-02-20T07:39:03;100830.72;;;12.43;70.86
54455;BME280;40364;52.270;10.546;2023-02-20T07:41:31;100840.91;;;12.76;67.51
54455;BME280;40364;52.270;10.546;2023-02-20T07:43:59;100838.50;;;12.26;70.64
54455;BME280;40364;52.270;10.546;2023-02-20T07:46:26;100833.00;;;12.66;69.86
54455;BME280;40364;52.270;10.546;2023-02-20T07:48:54;100829.63;;;12.60;70.09
54455;BME280;40364;52.270;10.546;2023-02-20T07:51:21;100816.25;;;12.05;71.50
54455;BME280;40364;52.270;10.546;2023-02-20T07:53:48;100808.56;;;12.63;69.88
54455;BME280;40364;52.270;10.546;2023-02-20T07:56:15;100795.97;;;12.57;69.51
54455;BME280;40364;52.270;10.546;2023-02-20T07:58:42;100793.44;;;12.03;72.18
54455;BME280;40364;52.270;10.546;2023-02-20T08:01:09;100806.25;;;11.92;73.92
54455;BME280;40364;52.270;10.546;2023-02-20T08:03:35;100801.13;;;12.30;71.76
54455;BME280;40364;52.270;10.546;2023-02-20T08:06:04;100795.91;;;12.17;71.18
54455;BME280;40364;52.270;10.546;2023-02-20T08:08:31;100799.84;;;12.40;70.49
54455;BME280;40364;52.270;10.546;2023-02-20T08:10:57;100801.00;;;13.03;67.38
54455;BME280;40364;52.270;10.546;2023-02-20T08:13:24;100791.47;;;12.40;69.84
54455;BME280;40364;52.270;10.546;2023-02-20T08:15:51;100781.75;;;13.14;65.70
54455;BME280;40364;52.270;10.546;2023-02-20T08:18:18;100774.31;;;12.66;66.83
54455;BME280;40364;52.270;10.546;2023-02-20T08:20:44;100770.59;;;12.62;66.74
54455;BME280;40364;52.270;10.546;2023-02-20T08:23:18;100758.06;;;13.24;64.39
54455;BME280;40364;52.270;10.546;2023-02-20T08:25:45;100766.00;;;12.41;67.15
54455;BME280;40364;52.270;10.546;2023-02-20T08:28:12;100764.34;;;12.28;67.78
54455;BME280;40364;52.270;10.546;2023-02-20T08:30:39;100761.88;;;13.03;65.77
54455;BME280;40364;52.270;10.546;2023-02-20T08:33:05;100752.88;;;12.82;64.83
54455;BME280;40364;52.270;10.546;2023-02-20T08:35:32;100751.53;;;12.52;65.68
54455;BME280;40364;52.270;10.546;2023-02-20T08:37:59;100759.34;;;12.86;64.63
54455;BME280;40364;52.270;10.546;2023-02-20T08:40:28;100757.22;;;12.95;64.37
54455;BME280;40364;52.270;10.546;2023-02-20T08:42:54;100734.81;;;13.51;62.19
54455;BME280;40364;52.270;10.546;2023-02-20T08:45:21;100725.78;;;12.86;64.31
54455;BME280;40364;52.270;10.546;2023-02-20T08:47:48;100730.06;;;13.67;61.70
54455;BME280;40364;52.270;10.546;2023-02-20T08:50:17;100725.63;;;13.35;61.09
54455;BME280;40364;52.270;10.546;2023-02-20T08:52:44;100734.13;;;12.70;63.72
54455;BME280;40364;52.270;10.546;2023-02-20T08:55:12;100734.94;;;13.55;61.58
54455;BME280;40364;52.270;10.546;2023-02-20T08:57:42;100735.66;;;13.83;60.32
54455;BME280;40364;52.270;10.546;2023-02-20T09:00:10;100728.31;;;14.10;59.27
54455;BME280;40364;52.270;10.546;2023-02-20T09:02:37;100733.41;;;13.57;61.27
54455;BME280;40364;52.270;10.546;2023-02-20T09:05:06;100718.22;;;13.90;60.14
54455;BME280;40364;52.270;10.546;2023-02-20T09:07:33;100729.09;;;13.75;59.56
54455;BME280;40364;52.270;10.546;2023-02-20T09:09:59;100736.13;;;13.69;60.55
54455;BME280;40364;52.270;10.546;2023-02-20T09:12:26;100733.59;;;13.64;59.58
54455;BME280;40364;52.270;10.546;2023-02-20T09:14:54;100727.34;;;13.87;59.92
54455;BME280;40364;52.270;10.546;2023-02-20T09:17:20;100726.63;;;14.40;58.02
54455;BME280;40364;52.270;10.546;2023-02-20T09:19:47;100720.84;;;13.67;60.45
54455;BME280;40364;52.270;10.546;2023-02-20T09:22:14;100723.16;;;14.12;58.84
54455;BME280;40364;52.270;10.546;2023-02-20T09:24:41;100725.19;;;14.46;58.48
54455;BME280;40364;52.270;10.546;2023-02-20T09:27:07;100732.69;;;14.58;57.16
54455;BME280;40364;52.270;10.546;2023-02-20T09:29:34;100730.91;;;14.69;56.45
54455;BME280;40364;52.270;10.546;2023-02-20T09:32:05;100740.88;;;15.25;55.46
54455;BME280;40364;52.270;10.546;2023-02-20T09:34:32;100728.97;;;14.38;56.23
54455;BME280;40364;52.270;10.546;2023-02-20T09:36:58;100710.16;;;14.74;56.99
54455;BME280;40364;52.270;10.546;2023-02-20T09:39:25;100714.31;;;14.61;57.62
54455;BME280;40364;52.270;10.546;2023-02-20T09:42:04;100717.09;;;15.19;56.28
54455;BME280;40364;52.270;10.546;2023-02-20T09:44:39;100698.19;;;15.15;56.06
54455;BME280;40364;52.270;10.546;2023-02-20T09:47:24;100693.22;;;14.67;57.82
54455;BME280;40364;52.270;10.546;2023-02-20T09:49:56;100700.38;;;14.83;57.57
54455;BME280;40364;52.270;10.546;2023-02-20T09:52:26;100696.44;;;14.49;59.25
54455;BME280;40364;52.270;10.546;2023-02-20T09:55:00;100706.09;;;15.10;58.04
54455;BME280;40364;52.270;10.546;2023-02-20T09:57:28;100694.28;;;15.01;58.13
54455;BME280;40364;52.270;10.546;2023-02-20T10:00:02;100694.53;;;14.73;60.12
54455;BME280;40364;52.270;10.546;2023-02-20T10:02:36;100685.75;;;14.74;60.15
54455;BME280;40364;52.270;10.546;2023-02-20T10:05:06;100696.25;;;14.97;58.98
54455;BME280;40364;52.270;10.546;2023-02-20T10:07:37;100703.38;;;14.75;60.56
54455;BME280;40364;52.270;10.546;2023-02-20T10:10:17;100702.22;;;14.57;60.95
54455;BME280;40364;52.270;10.546;2023-02-20T10:12:51;100711.19;;;15.24;59.91
54455;BME280;40364;52.270;10.546;2023-02-20T10:15:24;100707.94;;;15.64;58.45
54455;BME280;40364;52.270;10.546;2023-02-20T10:17:58;100699.47;;;14.79;61.50
54455;BME280;40364;52.270;10.546;2023-02-20T10:20:37;100692.72;;;15.23;59.57
54455;BME280;40364;52.270;10.546;2023-02-20T10:23:12;100698.16;;;15.35;60.11
54455;BME280;40364;52.270;10.546;2023-02-20T10:25:43;100693.34;;;14.55;62.75
54455;BME280;40364;52.270;10.546;2023-02-20T10:28:15;100691.16;;;14.64;63.66
54455;BME280;40364;52.270;10.546;2023-02-20T10:30:45;100698.31;;;14.80;62.54
54455;BME280;40364;52.270;10.546;2023-02-20T10:33:22;100685.06;;;15.20;62.08
54455;BME280;40364;52.270;10.546;2023-02-20T10:35:54;100681.09;;;15.01;62.83
54455;BME280;40364;52.270;10.546;2023-02-20T10:38:25;100671.50;;;14.83;63.75
54455;BME280;40364;52.270;10.546;2023-02-20T10:41:01;100693.25;;;14.16;66.28
54455;BME280;40364;52.270;10.546;2023-02-20T10:43:33;100683.72;;;15.13;64.05
54455;BME280;40364;52.270;10.546;2023-02-20T10:46:05;100675.97;;;14.65;65.86
54455;BME280;40364;52.270;10.546;2023-02-20T10:48:37;100668.50;;;14.53;66.33
54455;BME280;40364;52.270;10.546;2023-02-20T10:51:09;100676.44;;;15.09;64.97
54455;BME280;40364;52.270;10.546;2023-02-20T10:53:43;100685.94;;;15.04;63.01
54455;BME280;40364;52.270;10.546;2023-02-20T10:56:15;100692.63;;;14.96;64.98
54455;BME280;40364;52.270;10.546;2023-02-20T10:58:49;100682.72;;;14.44;67.29
54455;BME280;40364;52.270;10.546;2023-02-20T11:01:21;100680.75;;;14.64;67.39
54455;BME280;40364;52.270;10.546;2023-02-20T11:03:56;100682.41;;;14.69;66.68
54455;BME280;40364;52.270;10.546;2023-02-20T11:06:28;100680.75;;;13.94;70.21
54455;BME280;40364;52.270;10.546;2023-02-20T11:08:56;100687.28;;;14.18;69.77
54455;BME280;40364;52.270;10.546;2023-02-20T11:11:27;100681.59;;;14.14;71.04
54455;BME280;40364;52.270;10.546;2023-02-20T11:13:57;100697.63;;;15.06;66.70
54455;BME280;40364;52.270;10.546;2023-02-20T11:16:28;100687.91;;;14.62;69.18
54455;BME280;40364;52.270;10.546;2023-02-20T11:19:05;100693.63;;;15.07;66.57
54455;BME280;40364;52.270;10.546;2023-02-20T11:21:36;100686.53;;;15.13;66.26
54455;BME280;40364;52.270;10.546;2023-02-20T11:24:18;100674.66;;;15.01;66.61
54455;BME280;40364;52.270;10.546;2023-02-20T11:26:47;100658.34;;;13.94;71.76
54455;BME280;40364;52.270;10.546;2023-02-20T11:29:18;100661.41;;;14.24;71.99
54455;BME280;40364;52.270;10.546;2023-02-20T11:31:45;100673.84;;;14.42;70.80
54455;BME280;40364;52.270;10.546;2023-02-20T11:34:17;100658.88;;;14.35;71.41
54455;BME280;40364;52.270;10.546;2023-02-20T11:36:45;100645.19;;;14.14;72.90
54455;BME280;40364;52.270;10.546;2023-02-20T11:39:19;100658.16;;;14.22;74.38
54455;BME280;40364;52.270;10.546;2023-02-20T11:41:48;100666.41;;;13.33;80.03
54455;BME280;40364;52.270;10.546;2023-02-20T11:44:19;100670.72;;;13.77;77.95
54455;BME280;40364;52.270;10.546;2023-02-20T11:46:47;100672.63;;;14.24;74.62
54455;BME280;40364;52.270;10.546;2023-02-20T11:49:34;100656.88;;;14.35;73.29
54455;BME280;40364;52.270;10.546;2023-02-20T11:52:14;100661.81;;;13.56;80.88
54455;BME280;40364;52.270;10.546;2023-02-20T11:54:41;100659.38;;;13.70;77.59
54455;BME280;40364;52.270;10.546;2023-02-20T11:57:19;100655.84;;;13.73;78.46
54455;BME280;40364;52.270;10.546;2023-02-20T11:59:48;100648.41;;;13.97;78.11
54455;BME280;40364;52.270;10.546;2023-02-20T12:02:22;100634.81;;;13.48;79.90
54455;BME280;40364;52.270;10.546;2023-02-20T12:05:10;100647.31;;;13.86;78.16
54455;BME280;40364;52.270;10.546;2023-02-20T12:07:41;100637.75;;;14.57;73.52
54455;BME280;40364;52.270;10.546;2023-02-20T12:10:18;100638.28;;;14.27;77.29
54455;BME280;40364;52.270;10.546;2023-02-20T12:12:47;100634.53;;;13.69;79.08
54455;BME280;40364;52.270;10.546;2023-02-20T12:15:15;100626.63;;;14.25;76.35
54455;BME280;40364;52.270;10.546;2023-02-20T12:17:52;100630.59;;;13.38;80.72
54455;BME280;40364;52.270;10.546;2023-02-20T12:21:06;100634.25;;;13.58;80.48
54455;BME280;40364;52.270;10.546;2023-02-20T12:23:45;100629.06;;;13.41;82.04
54455;BME280;40364;52.270;10.546;2023-02-20T12:26:31;100638.03;;;14.16;78.07
54455;BME280;40364;52.270;10.546;2023-02-20T12:29:10;100629.66;;;13.50;81.19
54455;BME280;40364;52.270;10.546;2023-02-20T12:31:49;100650.25;;;13.73;80.04
54455;BME280;40364;52.270;10.546;2023-02-20T12:34:33;100639.16;;;13.61;80.74
54455;BME280;40364;52.270;10.546;2023-02-20T12:37:09;100654.41;;;13.64;80.71
54455;BME280;40364;52.270;10.546;2023-02-20T12:39:46;100626.31;;;13.13;83.88
54455;BME280;40364;52.270;10.546;2023-02-20T12:42:25;100623.69;;;13.20;85.51
54455;BME280;40364;52.270;10.546;2023-02-20T12:45:02;100630.47;;;13.19;83.70
54455;BME280;40364;52.270;10.546;2023-02-20T12:47:38;100633.03;;;13.40;83.34
54455;BME280;40364;52.270;10.546;2023-02-20T12:50:18;100639.88;;;13.74;79.69
54455;BME280;40364;52.270;10.546;2023-02-20T12:55:47;100656.94;;;13.69;80.15
54455;BME280;40364;52.270;10.546;2023-02-20T12:58:28;100663.44;;;14.08;79.61
54455;BME280;40364;52.270;10.546;2023-02-20T13:01:00;100661.00;;;13.71;81.82
54455;BME280;40364;52.270;10.546;2023-02-20T13:03:37;100651.88;;;13.43;84.52
54455;BME280;40364;52.270;10.546;2023-02-20T13:06:05;100676.91;;;13.08;86.07
54455;BME280;40364;52.270;10.546;2023-02-20T13:08:37;100666.31;;;13.29;86.22
54455;BME280;40364;52.270;10.546;2023-02-20T13:11:13;100644.34;;;13.15;89.70